createdAt,value
2022-10-19T00:02:38.483Z,74.40
2022-10-19T00:06:41.408Z,74.30
2022-10-19T00:10:44.345Z,74.50
2022-10-19T00:14:47.334Z,74.60
2022-10-19T00:18:50.494Z,74.70
2022-10-19T00:22:53.323Z,74.80
2022-10-19T00:26:56.277Z,75.00
2022-10-19T00:31:06.804Z,75.20
2022-10-19T00:35:09.860Z,75.40
2022-10-19T00:39:15.387Z,75.40
2022-10-19T00:43:26.395Z,75.80
2022-10-19T00:47:29.691Z,75.80
2022-10-19T00:51:35.453Z,75.50
2022-10-19T00:55:39.694Z,75.50
2022-10-19T00:59:44.557Z,75.20
2022-10-19T01:03:48.317Z,75.70
2022-10-19T01:07:52.364Z,75.60
2022-10-19T01:12:09.688Z,75.70
2022-10-19T01:16:23.094Z,75.80
2022-10-19T01:21:03.230Z,75.90
2022-10-19T01:25:12.489Z,75.70
2022-10-19T01:29:36.794Z,75.70
2022-10-19T01:33:46.144Z,75.90
2022-10-19T01:38:02.675Z,76.10
2022-10-19T01:42:12.486Z,76.10
2022-10-19T01:46:41.096Z,75.90
2022-10-19T01:50:50.669Z,76.20
2022-10-19T01:54:57.389Z,76.40
2022-10-19T01:59:03.771Z,76.50
2022-10-19T02:03:07.294Z,76.40
2022-10-19T02:07:11.885Z,76.10
2022-10-19T02:11:16.223Z,76.50
2022-10-19T02:15:21.469Z,77.10
2022-10-19T02:23:32.378Z,76.40
2022-10-19T02:27:35.683Z,76.20
2022-10-19T02:31:38.981Z,76.10
2022-10-19T02:35:42.082Z,76.30
2022-10-19T02:39:44.980Z,76.80
2022-10-19T02:43:56.497Z,77.10
2022-10-19T02:48:11.396Z,76.90
2022-10-19T02:52:14.921Z,76.60
2022-10-19T02:56:17.819Z,76.40
2022-10-19T03:00:20.802Z,76.30
2022-10-19T03:04:23.663Z,76.40
2022-10-19T03:08:26.406Z,76.40
2022-10-19T03:12:29.273Z,76.20
2022-10-19T03:16:31.939Z,76.10
2022-10-19T03:20:34.902Z,76.20
2022-10-19T03:24:37.582Z,76.40
2022-10-19T03:28:40.536Z,76.40
2022-10-19T03:32:43.529Z,76.30
2022-10-19T03:36:46.371Z,76.30
2022-10-19T03:40:49.077Z,76.30
2022-10-19T03:44:52.964Z,76.30
2022-10-19T03:48:55.978Z,76.30
2022-10-19T03:52:59.044Z,76.30
2022-10-19T03:57:01.891Z,76.30
2022-10-19T04:01:14.446Z,76.40
2022-10-19T04:05:17.216Z,76.70
2022-10-19T04:09:22.126Z,76.70
2022-10-19T04:13:24.935Z,77.00
2022-10-19T04:17:28.175Z,76.80
2022-10-19T04:21:33.367Z,76.90
2022-10-19T04:25:36.328Z,77.00
2022-10-19T04:29:39.022Z,77.10
2022-10-19T04:33:42.225Z,77.20
2022-10-19T04:37:45.026Z,77.20
2022-10-19T04:41:47.791Z,77.30
2022-10-19T04:45:50.468Z,77.30
2022-10-19T04:49:53.289Z,77.20
2022-10-19T04:53:59.602Z,77.10
2022-10-19T04:58:02.648Z,77.40
2022-10-19T05:02:05.553Z,77.60
2022-10-19T05:06:08.858Z,79.30
2022-10-19T05:10:11.962Z,80.10
2022-10-19T05:14:15.172Z,80.80
2022-10-19T05:18:17.926Z,81.00
2022-10-19T05:22:20.625Z,80.70
2022-10-19T05:26:29.204Z,80.50
2022-10-19T05:30:32.708Z,80.30
2022-10-19T05:34:39.726Z,80.00
2022-10-19T05:38:44.133Z,79.80
2022-10-19T05:42:47.098Z,79.60
2022-10-19T05:46:51.385Z,79.60
2022-10-19T05:50:55.011Z,79.60
2022-10-19T05:54:58.511Z,79.60
2022-10-19T05:59:04.840Z,79.90
2022-10-19T06:03:07.602Z,80.20
2022-10-19T06:07:10.412Z,80.30
2022-10-19T06:11:17.467Z,80.70
2022-10-19T06:15:20.393Z,80.90
2022-10-19T06:19:23.302Z,81.10
2022-10-19T06:23:26.327Z,81.40
2022-10-19T06:27:29.415Z,81.60
2022-10-19T06:31:35.246Z,81.90
2022-10-19T06:35:38.595Z,82.10
2022-10-19T06:39:41.469Z,82.20
2022-10-19T06:43:44.774Z,82.40
2022-10-19T06:51:52.389Z,82.70
2022-10-19T06:56:03.166Z,82.70
2022-10-19T07:00:07.750Z,82.80
2022-10-19T07:04:10.530Z,82.60
2022-10-19T07:08:13.588Z,82.50
2022-10-19T07:12:16.411Z,82.30
2022-10-19T07:16:21.494Z,82.00
2022-10-19T07:20:24.807Z,81.80
2022-10-19T07:24:27.631Z,81.50
2022-10-19T07:28:30.953Z,81.40
2022-10-19T07:32:33.813Z,81.10
2022-10-19T07:36:37.159Z,80.50
2022-10-19T07:40:43.565Z,79.80
2022-10-19T07:44:50.654Z,79.50
2022-10-19T07:48:55.289Z,79.30
2022-10-19T07:52:58.093Z,79.10
2022-10-19T07:57:03.612Z,78.80
2022-10-19T08:01:10.589Z,78.40
2022-10-19T08:05:13.864Z,77.50
2022-10-19T08:09:33.780Z,77.30
2022-10-19T08:13:40.353Z,77.40
2022-10-19T08:17:44.161Z,77.40
2022-10-19T08:21:47.574Z,77.20
2022-10-19T08:25:50.826Z,77.00
2022-10-19T08:29:53.751Z,76.50
2022-10-19T08:33:57.801Z,76.30
2022-10-19T08:38:02.847Z,76.00
2022-10-19T08:42:19.767Z,75.50
2022-10-19T08:46:31.663Z,74.90
2022-10-19T08:50:41.222Z,74.40
2022-10-19T08:54:54.155Z,74.10
2022-10-19T08:59:16.122Z,73.80
2022-10-19T09:03:37.803Z,74.00
2022-10-19T09:07:53.338Z,73.00
2022-10-19T09:12:02.979Z,71.40
2022-10-19T09:16:06.521Z,70.80
2022-10-19T09:20:29.450Z,70.40
2022-10-19T09:24:51.763Z,69.40
2022-10-19T09:29:32.250Z,69.90
2022-10-19T09:33:38.729Z,69.10
2022-10-19T09:37:44.234Z,68.50
2022-10-19T09:42:19.974Z,69.10
2022-10-19T09:47:01.167Z,67.90
2022-10-19T09:51:12.384Z,67.50
2022-10-19T09:55:21.050Z,66.40
2022-10-19T09:59:29.416Z,66.50
2022-10-19T10:03:40.509Z,66.10
2022-10-19T10:07:44.864Z,65.90
2022-10-19T10:11:51.139Z,65.40
2022-10-19T10:16:03.895Z,64.90
2022-10-19T10:20:28.360Z,65.10
2022-10-19T10:24:33.491Z,64.50
2022-10-19T10:28:47.290Z,64.30
2022-10-19T10:32:53.670Z,63.40
2022-10-19T10:36:56.920Z,63.30
2022-10-19T10:41:29.207Z,63.80
2022-10-19T10:45:33.606Z,62.60
2022-10-19T10:49:38.332Z,62.00
2022-10-19T10:53:46.340Z,61.70
2022-10-19T10:57:54.532Z,61.10
2022-10-19T11:02:12.169Z,60.80
2022-10-19T11:06:17.251Z,60.80
2022-10-19T11:10:30.621Z,59.90
2022-10-19T11:15:01.293Z,59.70
2022-10-19T11:19:22.469Z,58.50
2022-10-19T11:23:57.724Z,58.90
2022-10-19T11:28:14.413Z,58.40
2022-10-19T11:32:51.213Z,59.00
2022-10-19T11:37:22.849Z,58.80
2022-10-19T11:42:02.593Z,59.10
2022-10-19T11:46:30.250Z,58.70
2022-10-19T11:50:58.962Z,58.10
2022-10-19T11:55:33.263Z,57.20
2022-10-19T12:00:15.411Z,56.30
2022-10-19T12:04:53.778Z,56.70
2022-10-19T12:08:59.773Z,56.50
2022-10-19T12:13:08.939Z,56.70
2022-10-19T12:17:21.003Z,54.90
2022-10-19T12:21:25.762Z,54.70
2022-10-19T12:25:29.463Z,54.80
2022-10-19T12:29:37.965Z,54.60
2022-10-19T12:34:02.374Z,54.20
2022-10-19T12:38:15.134Z,54.70
2022-10-19T12:42:32.431Z,54.40
2022-10-19T12:46:52.463Z,54.40
2022-10-19T12:50:58.671Z,54.60
2022-10-19T12:55:16.798Z,54.60
2022-10-19T12:59:27.116Z,54.80
2022-10-19T13:03:42.074Z,54.20
2022-10-19T13:12:20.008Z,54.50
2022-10-19T13:16:37.300Z,54.70
2022-10-19T13:24:43.169Z,54.00
2022-10-19T13:28:54.044Z,53.40
2022-10-19T13:32:57.025Z,52.90
2022-10-19T13:37:04.414Z,53.00
2022-10-19T13:41:26.524Z,52.20
2022-10-19T13:45:29.699Z,52.80
2022-10-19T13:49:32.931Z,52.10
2022-10-19T13:53:47.238Z,52.20
2022-10-19T13:58:24.828Z,52.60
2022-10-19T14:02:50.863Z,52.10
2022-10-19T14:07:00.799Z,52.70
2022-10-19T14:11:12.639Z,52.00
2022-10-19T14:15:18.529Z,52.10
2022-10-19T14:19:29.888Z,51.80
2022-10-19T14:23:35.779Z,50.90
2022-10-19T14:27:38.961Z,51.30
2022-10-19T14:31:42.290Z,51.40
2022-10-19T14:35:50.262Z,51.00
2022-10-19T14:40:26.663Z,50.90
2022-10-19T14:44:46.474Z,51.50
2022-10-19T14:48:50.914Z,51.70
2022-10-19T14:53:31.610Z,51.10
2022-10-19T14:57:40.881Z,52.10
2022-10-19T15:01:50.222Z,50.90
2022-10-19T15:05:59.886Z,51.70
2022-10-19T15:10:06.895Z,51.30
2022-10-19T15:14:16.704Z,51.70
2022-10-19T15:18:47.544Z,51.90
2022-10-19T15:22:49.287Z,51.40
2022-10-19T15:27:06.420Z,52.50
2022-10-19T15:31:16.820Z,51.80
2022-10-19T15:35:38.242Z,52.60
2022-10-19T15:39:44.870Z,53.20
2022-10-19T15:43:57.174Z,53.30
2022-10-19T15:48:21.837Z,53.20
2022-10-19T15:52:34.023Z,53.50
2022-10-19T15:56:42.342Z,53.90
2022-10-19T16:00:46.923Z,54.40
2022-10-19T16:04:50.505Z,54.70
2022-10-19T16:08:56.536Z,55.10
2022-10-19T16:12:59.551Z,55.10
2022-10-19T16:17:07.686Z,54.70
2022-10-19T16:21:13.499Z,54.70
2022-10-19T16:25:17.131Z,54.40
2022-10-19T16:29:20.522Z,54.60
2022-10-19T16:33:23.636Z,54.90
2022-10-19T16:37:26.359Z,55.50
2022-10-19T16:41:29.695Z,55.50
2022-10-19T16:45:36.938Z,54.70
2022-10-19T16:50:00.606Z,54.10
2022-10-19T16:54:45.933Z,54.30
2022-10-19T16:59:14.610Z,54.50
2022-10-19T17:03:22.129Z,54.40
2022-10-19T17:12:56.219Z,53.10
2022-10-19T17:16:59.899Z,52.80
2022-10-19T17:22:21.134Z,52.70
2022-10-19T17:27:04.515Z,52.60
2022-10-19T17:31:15.041Z,51.70
2022-10-19T17:36:11.434Z,51.10
2022-10-19T17:46:01.826Z,52.00
2022-10-19T17:50:36.947Z,50.80
2022-10-19T17:55:12.613Z,51.50
2022-10-19T17:59:16.200Z,50.20
2022-10-19T18:03:22.770Z,50.00
2022-10-19T18:07:26.288Z,50.00
2022-10-19T18:11:37.135Z,49.80
2022-10-19T18:15:40.184Z,49.40
2022-10-19T18:19:43.069Z,49.30
2022-10-19T18:23:46.140Z,49.10
2022-10-19T18:27:49.084Z,49.30
2022-10-19T18:31:53.064Z,49.10
2022-10-19T18:35:58.746Z,49.00
2022-10-19T18:40:01.646Z,49.50
2022-10-19T18:44:05.835Z,50.70
2022-10-19T18:48:08.826Z,49.90
2022-10-19T18:52:11.775Z,50.50
2022-10-19T18:56:17.067Z,50.10
2022-10-19T19:00:20.145Z,50.40
2022-10-19T19:04:23.069Z,51.40
2022-10-19T19:08:26.038Z,52.60
2022-10-19T19:12:31.070Z,53.80
2022-10-19T19:16:36.513Z,55.00
2022-10-19T19:20:42.526Z,55.70
2022-10-19T19:24:45.946Z,56.50
2022-10-19T19:28:51.581Z,57.40
2022-10-19T19:32:54.768Z,58.00
2022-10-19T19:36:57.631Z,58.40
2022-10-19T19:41:04.562Z,59.20
2022-10-19T19:45:19.590Z,60.00
2022-10-19T19:50:11.134Z,60.50
2022-10-19T19:59:33.403Z,60.20
2022-10-19T20:04:23.486Z,61.50
2022-10-19T20:09:40.643Z,61.20
2022-10-19T20:14:03.682Z,61.70
2022-10-19T20:18:45.272Z,61.40
2022-10-19T20:23:19.012Z,60.20
2022-10-19T20:27:27.271Z,58.90
2022-10-19T20:31:31.689Z,58.10
2022-10-19T20:35:37.207Z,57.30
2022-10-19T20:39:40.304Z,56.80
2022-10-19T20:43:43.563Z,57.90
2022-10-19T20:47:47.065Z,59.10
2022-10-19T20:51:50.534Z,59.50
2022-10-19T20:55:54.399Z,60.20
2022-10-19T20:59:57.306Z,60.80
2022-10-19T21:04:03.598Z,61.30
2022-10-19T21:08:09.527Z,61.70
2022-10-19T21:12:12.325Z,61.90
2022-10-19T21:16:17.031Z,62.00
2022-10-19T21:20:20.916Z,62.20
2022-10-19T21:24:27.367Z,62.50
2022-10-19T21:28:30.124Z,63.00
2022-10-19T21:32:33.121Z,63.20
2022-10-19T21:36:36.079Z,63.60
2022-10-19T21:40:38.900Z,63.70
2022-10-19T23:50:33.627Z,66.60
